createdAt,value
2018-07-15T00:00:01.523Z,33.10
2018-07-15T00:01:01.501Z,31.80
2018-07-15T00:02:01.486Z,30.10
2018-07-15T00:03:01.524Z,31.90
2018-07-15T00:04:01.432Z,35.30
2018-07-15T00:05:01.416Z,34.20
2018-07-15T00:06:01.394Z,34.20
2018-07-15T00:07:01.370Z,33.20
2018-07-15T00:08:01.345Z,29.00
2018-07-15T00:09:01.327Z,35.20
2018-07-15T00:10:01.304Z,34.90
2018-07-15T00:11:01.274Z,35.60
2018-07-15T00:12:01.261Z,34.70
2018-07-15T00:13:01.236Z,34.30
2018-07-15T00:14:01.211Z,33.50
2018-07-15T00:15:01.179Z,32.90
2018-07-15T00:16:01.174Z,32.80
2018-07-15T00:17:01.209Z,32.90
2018-07-15T00:18:01.127Z,30.50
2018-07-15T00:19:01.105Z,31.50
2018-07-15T00:20:01.083Z,37.50
2018-07-15T00:21:01.060Z,40.80
2018-07-15T00:22:01.032Z,39.50
2018-07-15T00:23:01.021Z,36.30
2018-07-15T00:24:00.983Z,37.30
2018-07-15T00:25:00.967Z,41.20
2018-07-15T00:26:00.943Z,39.90
2018-07-15T00:27:00.912Z,45.50
2018-07-15T00:28:00.898Z,38.70
2018-07-15T00:29:00.885Z,43.60
2018-07-15T00:30:00.841Z,47.70
2018-07-15T00:31:00.821Z,50.40
2018-07-15T00:32:00.812Z,46.30
2018-07-15T00:33:00.785Z,39.30
2018-07-15T00:34:00.754Z,38.40
2018-07-15T00:35:00.746Z,42.30
2018-07-15T00:36:00.705Z,37.90
2018-07-15T00:37:00.681Z,46.80
2018-07-15T00:38:00.680Z,47.30
2018-07-15T00:39:00.656Z,43.20
2018-07-15T00:40:00.633Z,46.50
2018-07-15T00:41:00.612Z,50.10
2018-07-15T00:42:00.575Z,45.40
2018-07-15T00:43:00.569Z,48.80
2018-07-15T00:44:00.524Z,44.10
2018-07-15T00:45:00.523Z,43.80
2018-07-15T00:46:00.499Z,59.00
2018-07-15T00:47:00.476Z,54.00
2018-07-15T00:48:00.438Z,49.30
2018-07-15T00:49:00.438Z,50.20
2018-07-15T00:50:00.408Z,46.50
2018-07-15T00:51:00.387Z,45.10
2018-07-15T00:52:00.370Z,48.00
2018-07-15T00:53:00.341Z,48.70
2018-07-15T00:54:00.321Z,50.30
2018-07-15T00:55:00.280Z,56.60
2018-07-15T00:56:00.277Z,64.60
2018-07-15T00:57:00.252Z,82.30
2018-07-15T00:58:00.232Z,81.20
2018-07-15T00:59:00.207Z,77.80
2018-07-15T01:00:00.184Z,72.20
2018-07-15T01:01:00.159Z,72.60
2018-07-15T01:02:00.145Z,67.10
2018-07-15T01:03:00.116Z,65.10
2018-07-15T01:04:00.093Z,61.00
2018-07-15T01:05:00.055Z,69.00
2018-07-15T01:06:00.049Z,63.20
2018-07-15T01:07:00.018Z,64.30
2018-07-15T01:08:00.011Z,66.50
2018-07-15T01:08:59.981Z,65.40
2018-07-15T01:09:59.960Z,77.10
2018-07-15T01:10:59.941Z,67.80
2018-07-15T01:11:59.914Z,61.60
2018-07-15T01:12:59.896Z,58.70
2018-07-15T01:13:59.860Z,60.70
2018-07-15T01:14:59.848Z,60.10
2018-07-15T01:15:59.824Z,53.90
2018-07-15T01:16:59.805Z,58.50
2018-07-15T01:17:59.777Z,53.20
2018-07-15T01:18:59.757Z,51.60
2018-07-15T01:19:59.743Z,53.30
2018-07-15T01:20:59.711Z,58.30
2018-07-15T01:21:59.691Z,55.40
2018-07-15T01:22:59.667Z,56.60
2018-07-15T01:23:59.638Z,53.70
2018-07-15T01:24:59.624Z,56.90
2018-07-15T01:25:59.602Z,57.10
2018-07-15T01:26:59.561Z,49.40
2018-07-15T01:27:59.557Z,53.30
2018-07-15T01:28:59.532Z,50.40
2018-07-15T01:29:59.512Z,49.10
2018-07-15T01:30:59.491Z,47.80
2018-07-15T01:31:59.469Z,48.00
2018-07-15T01:32:59.429Z,47.90
2018-07-15T01:33:59.415Z,44.50
2018-07-15T01:34:59.402Z,49.00
2018-07-15T01:35:59.372Z,45.80
2018-07-15T01:36:59.352Z,50.20
2018-07-15T01:37:59.333Z,50.90
2018-07-15T01:38:59.309Z,46.60
2018-07-15T01:39:59.284Z,50.50
2018-07-15T01:40:59.261Z,51.40
2018-07-15T01:41:59.224Z,52.70
2018-07-15T01:42:59.200Z,50.50
2018-07-15T01:43:59.202Z,48.30
2018-07-15T01:44:59.171Z,60.90
2018-07-15T01:45:59.148Z,53.10
2018-07-15T01:46:59.125Z,53.30
2018-07-15T01:47:59.104Z,60.70
2018-07-15T01:48:59.082Z,65.90
2018-07-15T01:49:59.057Z,60.20
2018-07-15T01:50:59.019Z,61.60
2018-07-15T01:51:59.013Z,54.50
2018-07-15T01:52:58.998Z,56.00
2018-07-15T01:53:58.967Z,64.60
2018-07-15T01:54:58.944Z,65.60
2018-07-15T01:55:58.920Z,62.40
2018-07-15T01:56:58.900Z,63.20
2018-07-15T01:57:58.858Z,63.40
2018-07-15T01:58:58.855Z,50.70
2018-07-15T01:59:58.814Z,62.40
2018-07-15T02:00:58.818Z,58.60
2018-07-15T02:01:58.789Z,68.20
2018-07-15T02:02:58.761Z,90.80
2018-07-15T02:03:58.748Z,82.80
2018-07-15T02:04:58.716Z,73.90
2018-07-15T02:05:58.691Z,81.50
2018-07-15T02:06:58.677Z,75.70
2018-07-15T02:07:58.645Z,71.70
2018-07-15T02:08:58.624Z,85.70
2018-07-15T02:09:58.596Z,104.10
2018-07-15T02:10:58.588Z,110.80
2018-07-15T02:11:58.557Z,121.00
2018-07-15T02:12:58.534Z,102.20
2018-07-15T02:13:58.511Z,94.90
2018-07-15T02:14:58.487Z,93.60
2018-07-15T02:15:58.458Z,81.00
2018-07-15T02:16:58.446Z,82.20
2018-07-15T02:17:58.422Z,82.90
2018-07-15T02:18:58.400Z,83.80
2018-07-15T02:19:58.370Z,78.20
2018-07-15T02:20:58.354Z,77.90
2018-07-15T02:21:58.329Z,69.90
2018-07-15T02:22:58.301Z,72.70
2018-07-15T02:23:58.280Z,78.50
2018-07-15T02:24:58.244Z,76.50
2018-07-15T02:25:58.234Z,77.80
2018-07-15T02:26:58.210Z,80.30
2018-07-15T02:27:58.188Z,86.90
2018-07-15T02:28:58.151Z,79.10
2018-07-15T02:29:58.127Z,84.30
2018-07-15T02:30:58.115Z,70.40
2018-07-15T02:31:58.099Z,74.20
2018-07-15T02:32:58.068Z,73.70
2018-07-15T02:33:58.052Z,73.60
2018-07-15T02:34:58.030Z,79.30
2018-07-15T02:35:58.007Z,75.00
2018-07-15T02:36:57.985Z,85.20
2018-07-15T02:37:57.961Z,74.10
2018-07-15T02:38:57.921Z,79.50
2018-07-15T02:39:57.911Z,78.40
2018-07-15T02:40:57.891Z,73.30
2018-07-15T02:41:57.850Z,77.90
2018-07-15T02:42:57.829Z,86.60
2018-07-15T02:43:57.824Z,76.20
2018-07-15T02:44:57.808Z,77.70
2018-07-15T02:45:57.770Z,79.40
2018-07-15T02:46:57.748Z,77.50
2018-07-15T02:47:57.721Z,82.30
2018-07-15T02:48:57.702Z,75.10
2018-07-15T02:49:57.681Z,78.10
2018-07-15T02:50:57.655Z,84.00
2018-07-15T02:51:57.632Z,88.20
2018-07-15T02:52:57.605Z,86.30
2018-07-15T02:53:57.587Z,90.50
2018-07-15T02:54:57.561Z,88.20
2018-07-15T02:55:57.540Z,85.60
2018-07-15T02:56:57.510Z,84.20
2018-07-15T02:57:57.496Z,92.00
2018-07-15T02:58:57.471Z,96.00
2018-07-15T02:59:57.431Z,97.10
2018-07-15T03:00:57.427Z,100.70
2018-07-15T03:01:57.398Z,102.40
2018-07-15T03:02:57.371Z,102.10
2018-07-15T03:03:57.355Z,102.40
2018-07-15T03:04:57.330Z,96.80
2018-07-15T03:05:57.291Z,96.50
2018-07-15T03:06:57.280Z,102.00
2018-07-15T03:07:57.262Z,83.60
2018-07-15T03:08:57.236Z,95.10
2018-07-15T03:09:57.211Z,94.10
2018-07-15T03:10:57.189Z,95.30
2018-07-15T03:11:57.169Z,101.50
2018-07-15T03:12:57.142Z,110.20
2018-07-15T03:13:57.101Z,111.70
2018-07-15T03:14:57.078Z,111.50
2018-07-15T03:15:57.068Z,114.90
2018-07-15T03:16:57.045Z,142.00
2018-07-15T03:17:57.066Z,130.30
2018-07-15T03:18:57.004Z,108.00
2018-07-15T03:19:56.981Z,120.10
2018-07-15T03:20:56.956Z,113.20
2018-07-15T03:21:56.935Z,111.80
2018-07-15T03:22:56.908Z,108.10
2018-07-15T03:23:56.886Z,103.60
2018-07-15T03:24:56.867Z,112.10
2018-07-15T03:25:56.837Z,109.70
2018-07-15T03:26:56.800Z,109.00
2018-07-15T03:27:56.792Z,105.80
2018-07-15T03:28:56.767Z,107.80
2018-07-15T03:29:56.751Z,106.00
2018-07-15T03:30:56.725Z,107.60
2018-07-15T03:31:56.698Z,111.70
2018-07-15T03:32:56.672Z,110.00
2018-07-15T03:33:56.654Z,117.40
2018-07-15T03:34:56.624Z,104.70
2018-07-15T03:35:56.587Z,115.70
2018-07-15T03:36:56.581Z,113.40
2018-07-15T03:37:56.554Z,109.90
2018-07-15T03:38:56.536Z,112.10
2018-07-15T03:39:56.571Z,110.40
2018-07-15T03:40:56.482Z,114.40
2018-07-15T03:41:56.459Z,107.90
2018-07-15T03:42:56.439Z,105.80
2018-07-15T03:43:56.417Z,108.70
2018-07-15T03:44:56.398Z,104.40
2018-07-15T03:45:56.367Z,103.90
2018-07-15T03:46:56.333Z,104.50
2018-07-15T03:47:56.321Z,97.10
2018-07-15T03:48:56.293Z,102.00
2018-07-15T03:49:56.253Z,103.10
2018-07-15T03:50:56.238Z,96.60
2018-07-15T03:51:56.228Z,101.50
2018-07-15T03:52:56.202Z,105.40
2018-07-15T03:53:56.165Z,96.00
2018-07-15T03:54:56.152Z,101.50
2018-07-15T03:55:56.297Z,97.10
2018-07-15T03:56:56.094Z,98.10
2018-07-15T03:57:56.083Z,95.80
2018-07-15T03:58:56.059Z,90.50
2018-07-15T03:59:56.040Z,95.00
2018-07-15T04:00:56.014Z,98.60
2018-07-15T04:01:55.975Z,102.70
2018-07-15T04:02:55.953Z,100.50
2018-07-15T04:03:55.943Z,104.30
2018-07-15T04:04:55.922Z,104.00
2018-07-15T04:05:55.894Z,104.40
2018-07-15T04:06:55.871Z,100.40
2018-07-15T04:07:55.850Z,114.50
2018-07-15T04:08:55.940Z,110.60
2018-07-15T04:09:55.805Z,102.50
2018-07-15T04:10:55.783Z,103.30
2018-07-15T04:11:55.747Z,107.30
2018-07-15T04:12:55.729Z,117.90
2018-07-15T04:13:55.703Z,119.60
2018-07-15T04:14:55.683Z,102.10
2018-07-15T04:15:55.655Z,111.40
2018-07-15T04:16:55.631Z,110.40
2018-07-15T04:17:55.610Z,113.50
2018-07-15T04:18:55.583Z,108.50
2018-07-15T04:19:55.560Z,107.90
2018-07-15T04:20:55.540Z,109.80
2018-07-15T04:21:55.515Z,108.40
2018-07-15T04:22:55.475Z,111.40
2018-07-15T04:23:55.466Z,112.50
2018-07-15T04:24:55.442Z,110.10
2018-07-15T04:25:55.420Z,109.80
2018-07-15T04:26:55.395Z,112.10
2018-07-15T04:27:55.369Z,114.70
2018-07-15T04:28:55.345Z,117.60
2018-07-15T04:29:55.304Z,116.30
2018-07-15T04:30:55.296Z,119.00
2018-07-15T04:31:55.272Z,118.70
2018-07-15T04:32:55.246Z,115.90
2018-07-15T04:33:55.226Z,120.20
2018-07-15T04:34:55.203Z,119.70
2018-07-15T04:35:55.176Z,116.60
2018-07-15T04:36:55.136Z,125.60
2018-07-15T04:37:55.139Z,118.60
2018-07-15T04:38:55.089Z,122.50
2018-07-15T04:39:55.123Z,117.70
2018-07-15T04:40:55.065Z,113.70
2018-07-15T04:41:55.037Z,116.10
2018-07-15T04:42:55.005Z,121.90
2018-07-15T04:43:55.071Z,128.40
2018-07-15T04:44:54.956Z,123.70
2018-07-15T04:45:54.933Z,121.80
2018-07-15T04:46:54.917Z,125.60
2018-07-15T04:47:54.888Z,118.30
2018-07-15T04:48:54.849Z,118.40
2018-07-15T04:49:54.849Z,123.60
2018-07-15T04:50:54.825Z,110.80
2018-07-15T04:51:54.796Z,116.20
2018-07-15T04:52:54.771Z,113.60
2018-07-15T04:53:54.745Z,114.30
2018-07-15T04:54:54.707Z,109.10
2018-07-15T04:55:54.700Z,108.20
2018-07-15T04:56:54.666Z,102.90
2018-07-15T04:57:54.649Z,112.80
2018-07-15T04:58:54.620Z,118.80
2018-07-15T04:59:54.603Z,124.30
2018-07-15T05:00:54.562Z,130.00
2018-07-15T05:01:54.611Z,128.90
2018-07-15T05:02:54.512Z,131.80
2018-07-15T05:03:54.509Z,137.60
2018-07-15T05:04:54.480Z,133.20
2018-07-15T05:07:38.154Z,140.20
2018-07-15T05:08:38.139Z,136.40
2018-07-15T05:09:38.098Z,131.70
2018-07-15T05:10:38.084Z,129.60
2018-07-15T05:11:38.060Z,129.60
2018-07-15T05:12:38.036Z,137.20
2018-07-15T05:13:38.011Z,135.00
2018-07-15T05:14:37.992Z,139.60
2018-07-15T05:15:37.953Z,140.10
2018-07-15T05:16:37.946Z,142.20
2018-07-15T05:17:37.921Z,138.40
2018-07-15T05:18:37.895Z,139.60
2018-07-15T05:19:37.866Z,136.30
2018-07-15T05:20:37.847Z,145.30
2018-07-15T05:21:37.820Z,138.70
2018-07-15T05:22:37.791Z,138.00
2018-07-15T05:23:37.773Z,130.90
2018-07-15T05:24:37.746Z,136.50
2018-07-15T05:25:37.723Z,145.70
2018-07-15T05:26:37.703Z,136.30
2018-07-15T05:27:37.671Z,132.00
2018-07-15T05:28:37.651Z,141.10
2018-07-15T05:29:37.614Z,137.40
2018-07-15T05:30:37.602Z,136.70
2018-07-15T05:31:37.576Z,137.50
2018-07-15T05:32:37.558Z,135.10
2018-07-15T05:33:37.514Z,136.80
2018-07-15T05:34:37.505Z,133.10
2018-07-15T05:35:37.471Z,141.30
2018-07-15T05:36:37.445Z,129.80
2018-07-15T05:37:37.430Z,143.10
2018-07-15T05:38:37.406Z,138.00
2018-07-15T05:39:37.385Z,135.60
2018-07-15T05:40:37.356Z,118.70
2018-07-15T05:41:37.335Z,127.40
2018-07-15T05:42:37.314Z,129.00
2018-07-15T05:43:37.288Z,161.80
2018-07-15T05:44:37.248Z,166.70
2018-07-15T05:45:37.244Z,167.20
2018-07-15T05:46:37.197Z,163.10
2018-07-15T05:47:37.192Z,159.60
2018-07-15T05:48:37.167Z,158.40
2018-07-15T05:49:37.129Z,176.30
2018-07-15T05:50:37.108Z,159.70
2018-07-15T05:51:37.076Z,169.60
2018-07-15T05:52:37.070Z,151.20
2018-07-15T05:53:37.030Z,160.70
2018-07-15T05:54:37.018Z,153.30
2018-07-15T05:55:36.997Z,148.50
2018-07-15T05:56:36.977Z,150.20
2018-07-15T05:57:36.947Z,153.00
2018-07-15T05:58:36.904Z,152.70
2018-07-15T05:59:36.886Z,142.90
2018-07-15T06:00:36.858Z,142.90
2018-07-15T06:01:36.848Z,149.50
2018-07-15T06:02:36.824Z,159.20
2018-07-15T06:03:36.869Z,152.60
2018-07-15T06:04:36.788Z,156.10
2018-07-15T06:05:36.744Z,155.00
2018-07-15T06:06:36.721Z,137.70
2018-07-15T06:07:36.697Z,147.10
2018-07-15T06:08:36.671Z,144.20
2018-07-15T06:09:36.648Z,146.30
2018-07-15T06:10:36.645Z,139.70
2018-07-15T06:11:36.602Z,151.10
2018-07-15T06:12:36.573Z,151.00
2018-07-15T06:13:36.554Z,148.50
2018-07-15T06:14:36.503Z,167.30
2018-07-15T06:15:36.499Z,151.60
2018-07-15T06:16:36.483Z,145.30
2018-07-15T06:17:36.455Z,152.80
2018-07-15T06:18:36.412Z,158.10
2018-07-15T06:19:36.388Z,159.50
2018-07-15T06:20:36.374Z,155.20
2018-07-15T06:21:36.357Z,152.50
2018-07-15T06:22:36.370Z,158.70
2018-07-15T06:23:36.387Z,154.20
2018-07-15T06:24:36.284Z,161.00
2018-07-15T06:25:36.260Z,164.10
2018-07-15T06:26:36.234Z,154.90
2018-07-15T06:27:36.205Z,157.80
2018-07-15T06:28:36.180Z,159.10
2018-07-15T06:29:36.164Z,157.00
2018-07-15T06:30:36.132Z,155.50
2018-07-15T06:31:36.108Z,151.00
2018-07-15T06:32:36.084Z,150.80
2018-07-15T06:33:36.062Z,148.30
2018-07-15T06:34:36.019Z,149.30
2018-07-15T06:35:36.008Z,151.30
2018-07-15T06:36:35.986Z,163.00
2018-07-15T06:37:35.963Z,139.30
2018-07-15T06:38:35.941Z,148.20
2018-07-15T06:39:35.895Z,154.40
2018-07-15T06:40:35.877Z,165.00
2018-07-15T06:41:35.863Z,153.10
2018-07-15T06:42:35.834Z,148.80
2018-07-15T06:43:35.811Z,153.60
2018-07-15T06:44:35.788Z,155.20
2018-07-15T06:45:35.768Z,156.30
2018-07-15T06:46:35.735Z,146.90
2018-07-15T06:47:35.722Z,156.60
2018-07-15T06:48:35.695Z,156.90
2018-07-15T06:49:35.663Z,149.50
2018-07-15T06:50:35.635Z,163.80
2018-07-15T06:51:35.616Z,152.60
2018-07-15T06:52:35.592Z,149.70
2018-07-15T06:53:35.549Z,157.50
2018-07-15T06:54:35.541Z,148.00
2018-07-15T06:55:35.516Z,157.30
2018-07-15T06:56:35.490Z,152.50
2018-07-15T06:57:35.469Z,149.50
2018-07-15T06:58:35.446Z,146.80
2018-07-15T06:59:35.415Z,148.70
2018-07-15T07:00:35.393Z,141.10
2018-07-15T07:01:35.475Z,136.90
2018-07-15T07:02:35.344Z,138.40
2018-07-15T07:03:35.322Z,137.80
2018-07-15T07:04:35.278Z,143.50
2018-07-15T07:05:35.270Z,151.30
2018-07-15T07:06:35.247Z,144.00
2018-07-15T07:07:35.263Z,144.20
2018-07-15T07:08:35.194Z,142.00
2018-07-15T07:09:35.168Z,136.70
2018-07-15T07:10:35.147Z,131.20
2018-07-15T07:11:35.127Z,141.30
2018-07-15T07:12:35.100Z,149.20
2018-07-15T07:13:35.068Z,131.40
2018-07-15T07:14:35.044Z,143.60
2018-07-15T07:15:35.005Z,135.40
2018-07-15T07:16:34.995Z,143.60
2018-07-15T07:17:34.964Z,152.60
2018-07-15T07:18:34.934Z,165.60
2018-07-15T07:19:34.905Z,159.70
2018-07-15T07:20:34.951Z,163.30
2018-07-15T07:21:34.863Z,164.90
2018-07-15T07:22:34.851Z,160.60
2018-07-15T07:23:34.823Z,160.20
2018-07-15T07:24:34.799Z,161.40
2018-07-15T07:25:34.778Z,167.50
2018-07-15T07:26:34.748Z,162.30
2018-07-15T07:27:34.725Z,163.70
2018-07-15T07:28:34.700Z,156.20
2018-07-15T07:29:34.662Z,153.60
2018-07-15T07:30:34.653Z,166.00
2018-07-15T07:31:34.612Z,162.40
2018-07-15T07:32:34.604Z,161.30
2018-07-15T07:33:34.580Z,157.90
2018-07-15T07:34:34.553Z,165.30
2018-07-15T07:35:34.528Z,156.00
2018-07-15T07:36:34.502Z,167.30
2018-07-15T07:37:34.479Z,162.20
2018-07-15T07:38:34.477Z,164.50
2018-07-15T07:39:34.432Z,158.50
2018-07-15T07:40:34.407Z,154.30
2018-07-15T07:41:34.382Z,152.80
2018-07-15T07:42:34.354Z,153.40
2018-07-15T07:43:34.330Z,148.40
2018-07-15T07:44:34.308Z,140.50
2018-07-15T07:45:34.283Z,136.90
2018-07-15T07:46:34.260Z,142.60
2018-07-15T07:47:34.234Z,147.70
2018-07-15T07:48:34.207Z,158.40
2018-07-15T07:49:34.183Z,157.30
2018-07-15T07:50:34.157Z,161.70
2018-07-15T07:51:34.134Z,156.90
2018-07-15T07:52:34.106Z,152.90
2018-07-15T07:53:34.081Z,159.70
2018-07-15T07:54:34.062Z,161.60
2018-07-15T07:55:34.035Z,153.50
2018-07-15T07:56:34.011Z,157.70
2018-07-15T07:57:33.986Z,139.90
2018-07-15T07:58:33.944Z,148.10
2018-07-15T07:59:33.922Z,147.90
2018-07-15T08:00:33.892Z,153.80
2018-07-15T08:01:33.867Z,146.20
2018-07-15T08:02:33.855Z,143.60
2018-07-15T08:03:33.820Z,129.50
2018-07-15T08:04:33.808Z,134.80
2018-07-15T08:05:33.775Z,129.70
2018-07-15T08:06:33.749Z,132.00
2018-07-15T08:07:33.725Z,132.40
2018-07-15T08:08:33.712Z,130.70
2018-07-15T08:09:33.684Z,131.30
2018-07-15T08:10:33.645Z,127.60
2018-07-15T08:11:33.640Z,129.30
2018-07-15T08:12:33.612Z,131.10
2018-07-15T08:13:33.584Z,140.40
2018-07-15T08:14:33.563Z,144.30
2018-07-15T08:15:33.536Z,157.20
2018-07-15T08:17:06.719Z,142.20
2018-07-15T08:17:33.488Z,156.00
2018-07-15T08:18:33.473Z,151.00
2018-07-15T08:19:33.435Z,152.80
2018-07-15T08:20:33.401Z,159.40
2018-07-15T08:21:33.373Z,152.40
2018-07-15T08:22:33.432Z,155.30
2018-07-15T08:23:33.339Z,149.00
2018-07-15T08:24:33.314Z,160.40
2018-07-15T08:25:33.283Z,150.80
2018-07-15T08:26:33.262Z,149.80
2018-07-15T08:27:33.235Z,140.70
2018-07-15T08:28:33.322Z,153.30
2018-07-15T08:29:33.188Z,158.20
2018-07-15T08:30:33.161Z,148.30
2018-07-15T08:31:33.135Z,153.50
2018-07-15T08:32:33.100Z,147.00
2018-07-15T08:33:33.076Z,154.70
2018-07-15T08:34:33.058Z,150.40
2018-07-15T08:35:33.033Z,154.10
2018-07-15T08:36:32.993Z,157.20
2018-07-15T08:37:32.988Z,159.50
2018-07-15T08:38:32.957Z,153.70
2018-07-15T08:39:32.933Z,153.20
2018-07-15T08:40:32.938Z,163.60
2018-07-15T08:41:32.887Z,164.40
2018-07-15T08:42:32.859Z,157.90
2018-07-15T08:43:32.842Z,151.90
2018-07-15T08:44:32.813Z,152.00
2018-07-15T08:45:32.770Z,160.80
2018-07-15T08:46:32.769Z,159.70
2018-07-15T08:47:32.738Z,160.10
2018-07-15T08:48:32.716Z,157.00
2018-07-15T08:49:32.688Z,162.00
2018-07-15T08:50:32.661Z,160.40
2018-07-15T08:51:32.638Z,168.90
2018-07-15T08:52:32.611Z,162.90
2018-07-15T08:53:32.588Z,165.70
2018-07-15T08:54:32.589Z,160.10
2018-07-15T08:55:32.533Z,150.40
2018-07-15T08:56:32.499Z,144.50
2018-07-15T08:57:32.489Z,151.10
2018-07-15T08:58:32.462Z,158.20
2018-07-15T08:59:32.435Z,162.50
2018-07-15T09:00:32.399Z,159.70
2018-07-15T09:01:32.385Z,150.30
2018-07-15T09:02:32.365Z,159.70
2018-07-15T09:03:32.335Z,157.60
2018-07-15T09:04:32.316Z,160.90
2018-07-15T09:05:32.284Z,166.30
2018-07-15T09:06:32.258Z,160.20
2018-07-15T09:07:32.243Z,167.30
2018-07-15T09:08:32.209Z,171.00
2018-07-15T09:09:32.190Z,159.30
2018-07-15T09:10:32.169Z,160.40
2018-07-15T09:11:32.124Z,152.40
2018-07-15T09:12:32.115Z,176.80
2018-07-15T09:13:32.122Z,181.40
2018-07-15T09:14:32.058Z,177.80
2018-07-15T09:15:32.023Z,173.40
2018-07-15T09:16:32.016Z,179.80
2018-07-15T09:17:31.969Z,175.80
2018-07-15T09:18:31.966Z,174.60
2018-07-15T09:19:31.932Z,175.00
2018-07-15T09:20:31.915Z,163.80
2018-07-15T09:21:31.888Z,179.80
2018-07-15T09:22:31.860Z,185.20
2018-07-15T09:23:31.835Z,176.30
2018-07-15T09:24:31.943Z,181.70
2018-07-15T09:25:31.783Z,177.10
2018-07-15T09:26:31.757Z,175.40
2018-07-15T09:27:31.718Z,167.30
2018-07-15T09:28:31.711Z,160.50
2018-07-15T09:29:31.692Z,150.90
2018-07-15T09:30:31.655Z,157.20
2018-07-15T09:31:31.630Z,153.40
2018-07-15T09:32:31.657Z,163.20
2018-07-15T09:33:31.581Z,169.40
2018-07-15T09:34:31.551Z,169.90
2018-07-15T09:35:31.603Z,172.80
2018-07-15T09:36:31.509Z,169.90
2018-07-15T09:37:31.482Z,160.60
2018-07-15T09:38:31.454Z,154.10
2018-07-15T09:39:31.412Z,148.30
2018-07-15T09:40:31.407Z,164.30
2018-07-15T09:41:31.377Z,157.40
2018-07-15T09:42:31.355Z,158.00
2018-07-15T09:43:31.315Z,160.40
2018-07-15T09:44:31.301Z,144.70
2018-07-15T09:45:31.286Z,139.60
2018-07-15T09:46:31.249Z,146.40
2018-07-15T09:47:31.231Z,144.40
2018-07-15T09:48:31.202Z,136.00
2018-07-15T09:49:31.173Z,134.30
2018-07-15T09:50:31.146Z,136.30
2018-07-15T09:51:31.133Z,136.60
2018-07-15T09:52:31.091Z,140.20
2018-07-15T09:53:31.083Z,145.70
2018-07-15T09:54:31.054Z,150.80
2018-07-15T09:55:31.026Z,141.80
2018-07-15T09:56:30.997Z,146.40
2018-07-15T09:57:30.976Z,154.00
2018-07-15T09:58:30.949Z,151.60
2018-07-15T09:59:30.911Z,142.60
2018-07-15T10:00:30.901Z,136.30
2018-07-15T10:01:30.877Z,134.30
2018-07-15T10:02:30.850Z,134.60
2018-07-15T10:03:30.823Z,134.90
2018-07-15T10:04:30.857Z,139.00
2018-07-15T10:05:30.774Z,143.50
2018-07-15T10:06:30.751Z,135.80
2018-07-15T10:07:30.789Z,135.80
2018-07-15T10:08:30.706Z,136.50
2018-07-15T10:09:30.675Z,134.00
2018-07-15T10:10:30.743Z,152.60
2018-07-15T10:11:30.627Z,158.00
2018-07-15T10:12:30.605Z,145.50
2018-07-15T10:13:30.567Z,133.80
2018-07-15T10:14:30.553Z,123.20
2018-07-15T10:15:30.510Z,133.70
2018-07-15T10:16:30.501Z,135.90
2018-07-15T10:17:30.478Z,133.00
2018-07-15T10:19:03.718Z,132.60
2018-07-15T10:19:30.431Z,132.00
2018-07-15T10:20:30.404Z,130.60
2018-07-15T10:21:30.385Z,128.70
2018-07-15T10:22:30.343Z,135.80
2018-07-15T10:23:30.327Z,134.60
2018-07-15T10:24:30.304Z,143.80
2018-07-15T10:25:30.287Z,139.70
2018-07-15T10:26:30.274Z,128.40
2018-07-15T10:27:30.232Z,128.80
2018-07-15T10:28:30.211Z,130.20
2018-07-15T10:29:30.185Z,120.90
2018-07-15T10:30:30.161Z,123.00
2018-07-15T10:31:30.124Z,115.00
2018-07-15T10:32:30.105Z,127.60
2018-07-15T10:33:30.088Z,120.60
2018-07-15T10:34:30.071Z,126.30
2018-07-15T10:35:30.036Z,116.50
2018-07-15T10:36:30.006Z,125.50
2018-07-15T10:37:29.993Z,120.50
2018-07-15T10:38:29.974Z,116.10
2018-07-15T10:39:29.943Z,107.70
2018-07-15T10:40:29.926Z,117.40
2018-07-15T10:41:29.907Z,112.30
2018-07-15T10:42:29.877Z,110.70
2018-07-15T10:43:29.859Z,117.20
2018-07-15T10:44:29.836Z,108.60
2018-07-15T10:45:29.819Z,110.50
2018-07-15T10:46:29.787Z,114.40
2018-07-15T10:47:29.765Z,111.40
2018-07-15T10:48:29.739Z,112.90
2018-07-15T10:49:29.721Z,112.20
2018-07-15T10:50:29.697Z,117.40
2018-07-15T10:51:29.674Z,121.40
2018-07-15T10:52:29.649Z,115.00
2018-07-15T10:53:29.630Z,109.10
2018-07-15T10:54:29.606Z,119.10
2018-07-15T10:55:29.583Z,114.60
2018-07-15T10:56:29.568Z,115.10
2018-07-15T10:57:29.550Z,114.50
2018-07-15T10:58:29.517Z,109.10
2018-07-15T10:59:29.504Z,110.70
2018-07-15T11:00:29.467Z,110.20
2018-07-15T11:01:29.443Z,109.70
2018-07-15T11:02:29.432Z,110.40
2018-07-15T11:03:29.392Z,105.30
2018-07-15T11:04:29.390Z,102.80
2018-07-15T11:05:29.375Z,102.20
2018-07-15T11:06:29.447Z,109.30
2018-07-15T11:07:29.323Z,104.20
2018-07-15T11:08:29.305Z,102.50
2018-07-15T11:09:29.284Z,111.90
2018-07-15T11:10:29.266Z,113.40
2018-07-15T11:11:29.251Z,103.10
2018-07-15T11:12:29.220Z,104.00
2018-07-15T11:13:29.267Z,105.70
2018-07-15T11:14:29.178Z,101.00
2018-07-15T11:15:29.167Z,101.80
2018-07-15T11:16:29.148Z,100.60
2018-07-15T11:17:29.121Z,86.70
2018-07-15T11:18:29.099Z,93.30
2018-07-15T11:19:29.076Z,92.80
2018-07-15T11:20:29.056Z,94.90
2018-07-15T11:21:29.027Z,98.00
2018-07-15T11:22:29.104Z,93.90
2018-07-15T11:23:28.987Z,96.00
2018-07-15T11:24:28.978Z,98.70
2018-07-15T11:25:28.947Z,97.20
2018-07-15T11:26:28.936Z,94.60
2018-07-15T11:27:28.899Z,94.10
2018-07-15T11:28:28.896Z,82.80
2018-07-15T11:29:28.875Z,83.20
2018-07-15T11:30:28.857Z,91.60
2018-07-15T11:31:28.883Z,86.10
2018-07-15T11:32:28.820Z,78.60
2018-07-15T11:33:28.799Z,87.60
2018-07-15T11:34:28.775Z,93.30
2018-07-15T11:35:28.761Z,87.10
2018-07-15T11:36:28.723Z,86.40
2018-07-15T11:37:28.726Z,89.60
2018-07-15T11:38:28.703Z,88.10
2018-07-15T11:39:28.686Z,89.90
2018-07-15T11:40:28.659Z,89.20
2018-07-15T11:41:28.647Z,87.50
2018-07-15T11:42:28.627Z,92.90
2018-07-15T11:43:28.607Z,99.00
2018-07-15T11:44:28.569Z,88.70
2018-07-15T11:45:28.571Z,83.30
2018-07-15T11:46:28.545Z,79.10
2018-07-15T11:47:28.528Z,87.10
2018-07-15T11:48:28.517Z,83.00
2018-07-15T11:49:28.495Z,79.30
2018-07-15T11:50:28.470Z,76.90
2018-07-15T11:51:28.460Z,77.40
2018-07-15T11:52:28.434Z,76.50
2018-07-15T11:53:28.416Z,78.10
2018-07-15T11:55:01.610Z,78.40
2018-07-15T11:55:28.378Z,74.30
2018-07-15T11:56:28.361Z,71.40
2018-07-15T11:57:28.342Z,72.80
2018-07-15T11:58:28.321Z,75.60
2018-07-15T11:59:28.305Z,71.60
2018-07-15T12:00:28.283Z,72.50
2018-07-15T12:01:28.303Z,72.30
2018-07-15T12:02:28.235Z,69.30
2018-07-15T12:03:28.229Z,66.50
2018-07-15T12:04:28.207Z,71.20
2018-07-15T12:05:28.193Z,72.60
2018-07-15T12:06:28.175Z,71.60
2018-07-15T12:07:28.158Z,73.00
2018-07-15T12:08:28.140Z,72.10
2018-07-15T12:09:28.130Z,71.90
2018-07-15T12:10:28.107Z,73.50
2018-07-15T12:11:28.087Z,69.20
2018-07-15T12:12:28.069Z,74.40
2018-07-15T12:13:28.052Z,72.10
2018-07-15T12:14:28.034Z,70.40
2018-07-15T12:15:28.013Z,71.10
2018-07-15T12:16:28.000Z,71.70
2018-07-15T12:17:27.985Z,68.80
2018-07-15T12:18:27.967Z,74.20
2018-07-15T12:19:27.944Z,71.60
2018-07-15T12:20:27.947Z,68.60
2018-07-15T12:21:27.911Z,72.10
2018-07-15T12:22:27.894Z,71.50
2018-07-15T12:23:27.883Z,72.50
2018-07-15T12:24:27.860Z,70.80
2018-07-15T12:25:27.834Z,70.90
2018-07-15T12:26:27.832Z,69.80
2018-07-15T12:27:27.813Z,70.00
2018-07-15T12:28:27.800Z,66.70
2018-07-15T12:29:27.873Z,66.50
2018-07-15T12:30:27.763Z,68.90
2018-07-15T12:31:27.752Z,68.00
2018-07-15T12:32:27.724Z,69.50
2018-07-15T12:33:27.712Z,70.80
2018-07-15T12:34:27.698Z,70.60
2018-07-15T12:35:27.683Z,68.40
2018-07-15T12:36:27.659Z,69.40
2018-07-15T12:37:27.655Z,69.60
2018-07-15T12:38:27.630Z,70.40